sensor_id;sensor_type;location;lat;lon;timestamp;temperature;humidity
13035;DHT22;6584;48.022;11.810;2022-11-20T00:01:20;5.10;99.90
13035;DHT22;6584;48.022;11.810;2022-11-20T00:03:46;5.10;99.90
13035;DHT22;6584;48.022;11.810;2022-11-20T00:06:14;5.00;99.90
13035;DHT22;6584;48.022;11.810;2022-11-20T00:08:40;5.00;99.90
13035;DHT22;6584;48.022;11.810;2022-11-20T00:11:11;5.00;99.90
13035;DHT22;6584;48.022;11.810;2022-11-20T00:13:37;5.00;99.90
13035;DHT22;6584;48.022;11.810;2022-11-20T00:16:05;5.00;99.90
13035;DHT22;6584;48.022;11.810;2022-11-20T00:18:31;5.00;99.90
13035;DHT22;6584;48.022;11.810;2022-11-20T00:21:01;5.00;99.90
13035;DHT22;6584;48.022;11.810;2022-11-20T00:23:27;5.00;99.90
13035;DHT22;6584;48.022;11.810;2022-11-20T00:25:53;5.00;99.90
13035;DHT22;6584;48.022;11.810;2022-11-20T00:28:18;5.00;99.90
13035;DHT22;6584;48.022;11.810;2022-11-20T00:30:44;5.00;99.90
13035;DHT22;6584;48.022;11.810;2022-11-20T00:33:09;5.00;99.90
13035;DHT22;6584;48.022;11.810;2022-11-20T00:35:35;5.00;99.90
13035;DHT22;6584;48.022;11.810;2022-11-20T00:38:00;5.00;99.90
13035;DHT22;6584;48.022;11.810;2022-11-20T00:40:26;5.00;99.90
13035;DHT22;6584;48.022;11.810;2022-11-20T00:42:52;5.10;99.90
13035;DHT22;6584;48.022;11.810;2022-11-20T00:45:17;5.10;99.90
13035;DHT22;6584;48.022;11.810;2022-11-20T00:47:43;5.10;99.90
13035;DHT22;6584;48.022;11.810;2022-11-20T00:50:08;5.10;99.90
13035;DHT22;6584;48.022;11.810;2022-11-20T00:52:34;5.20;99.90
13035;DHT22;6584;48.022;11.810;2022-11-20T00:54:59;5.20;99.90
13035;DHT22;6584;48.022;11.810;2022-11-20T00:57:25;5.20;99.90
13035;DHT22;6584;48.022;11.810;2022-11-20T00:59:50;5.20;99.90
13035;DHT22;6584;48.022;11.810;2022-11-20T01:02:16;5.20;99.90
13035;DHT22;6584;48.022;11.810;2022-11-20T01:04:42;5.20;99.90
13035;DHT22;6584;48.022;11.810;2022-11-20T01:07:08;5.20;99.90
13035;DHT22;6584;48.022;11.810;2022-11-20T01:09:33;5.10;99.90
13035;DHT22;6584;48.022;11.810;2022-11-20T01:11:59;5.20;99.90
13035;DHT22;6584;48.022;11.810;2022-11-20T01:14:25;5.20;99.90
13035;DHT22;6584;48.022;11.810;2022-11-20T01:16:51;5.20;99.90
13035;DHT22;6584;48.022;11.810;2022-11-20T01:19:19;5.20;99.90
13035;DHT22;6584;48.022;11.810;2022-11-20T01:21:48;5.20;99.90
13035;DHT22;6584;48.022;11.810;2022-11-20T01:24:16;5.20;99.90
13035;DHT22;6584;48.022;11.810;2022-11-20T01:26:43;5.30;99.90
13035;DHT22;6584;48.022;11.810;2022-11-20T01:29:14;5.30;99.90
13035;DHT22;6584;48.022;11.810;2022-11-20T01:31:39;5.20;99.90
13035;DHT22;6584;48.022;11.810;2022-11-20T01:34:09;5.20;99.90
13035;DHT22;6584;48.022;11.810;2022-11-20T01:36:36;5.20;99.90
13035;DHT22;6584;48.022;11.810;2022-11-20T01:39:09;5.30;99.90
13035;DHT22;6584;48.022;11.810;2022-11-20T01:41:35;5.20;99.90
13035;DHT22;6584;48.022;11.810;2022-11-20T01:44:23;5.20;99.90
13035;DHT22;6584;48.022;11.810;2022-11-20T01:47:07;5.20;99.90
13035;DHT22;6584;48.022;11.810;2022-11-20T01:49:47;5.20;99.90
13035;DHT22;6584;48.022;11.810;2022-11-20T01:52:19;5.20;99.90
13035;DHT22;6584;48.022;11.810;2022-11-20T01:55:09;5.20;99.90
13035;DHT22;6584;48.022;11.810;2022-11-20T01:57:37;5.20;99.90
13035;DHT22;6584;48.022;11.810;2022-11-20T02:00:08;5.30;99.90
13035;DHT22;6584;48.022;11.810;2022-11-20T02:02:35;5.30;99.90
13035;DHT22;6584;48.022;11.810;2022-11-20T02:05:16;5.30;99.90
13035;DHT22;6584;48.022;11.810;2022-11-20T02:07:44;5.30;99.90
13035;DHT22;6584;48.022;11.810;2022-11-20T02:10:09;5.40;99.90
13035;DHT22;6584;48.022;11.810;2022-11-20T02:12:36;5.40;99.90
13035;DHT22;6584;48.022;11.810;2022-11-20T02:15:20;5.40;99.90
13035;DHT22;6584;48.022;11.810;2022-11-20T02:17:46;5.30;99.90
13035;DHT22;6584;48.022;11.810;2022-11-20T02:20:12;5.30;99.90
13035;DHT22;6584;48.022;11.810;2022-11-20T02:23:00;5.30;99.90
13035;DHT22;6584;48.022;11.810;2022-11-20T02:25:30;5.30;99.90
13035;DHT22;6584;48.022;11.810;2022-11-20T02:27:57;5.40;99.90
13035;DHT22;6584;48.022;11.810;2022-11-20T02:30:22;5.30;99.90
13035;DHT22;6584;48.022;11.810;2022-11-20T02:32:48;5.40;99.90
13035;DHT22;6584;48.022;11.810;2022-11-20T02:37:48;5.40;99.90
13035;DHT22;6584;48.022;11.810;2022-11-20T02:40:14;5.50;99.90
13035;DHT22;6584;48.022;11.810;2022-11-20T02:42:40;5.50;99.90
13035;DHT22;6584;48.022;11.810;2022-11-20T02:45:06;5.40;99.90
13035;DHT22;6584;48.022;11.810;2022-11-20T02:47:32;5.40;99.90
13035;DHT22;6584;48.022;11.810;2022-11-20T02:49:58;5.40;99.90
13035;DHT22;6584;48.022;11.810;2022-11-20T02:52:24;5.40;99.90
13035;DHT22;6584;48.022;11.810;2022-11-20T02:54:50;5.40;99.90
13035;DHT22;6584;48.022;11.810;2022-11-20T02:57:15;5.40;99.90
13035;DHT22;6584;48.022;11.810;2022-11-20T02:59:41;5.40;99.90
13035;DHT22;6584;48.022;11.810;2022-11-20T03:02:06;5.40;99.90
13035;DHT22;6584;48.022;11.810;2022-11-20T03:04:32;5.40;99.90
13035;DHT22;6584;48.022;11.810;2022-11-20T03:06:57;5.30;99.90
13035;DHT22;6584;48.022;11.810;2022-11-20T03:09:23;5.30;99.90
13035;DHT22;6584;48.022;11.810;2022-11-20T03:11:48;5.30;99.90
13035;DHT22;6584;48.022;11.810;2022-11-20T03:14:14;5.30;99.90
13035;DHT22;6584;48.022;11.810;2022-11-20T03:16:40;5.20;99.90
13035;DHT22;6584;48.022;11.810;2022-11-20T03:19:06;5.20;99.90
13035;DHT22;6584;48.022;11.810;2022-11-20T03:21:34;5.20;99.90
13035;DHT22;6584;48.022;11.810;2022-11-20T03:24:01;5.10;99.90
13035;DHT22;6584;48.022;11.810;2022-11-20T03:26:27;5.20;99.90
13035;DHT22;6584;48.022;11.810;2022-11-20T03:28:55;5.20;99.90
13035;DHT22;6584;48.022;11.810;2022-11-20T03:31:33;5.20;99.90
13035;DHT22;6584;48.022;11.810;2022-11-20T03:33:59;5.10;99.90
13035;DHT22;6584;48.022;11.810;2022-11-20T03:36:26;5.10;99.90
13035;DHT22;6584;48.022;11.810;2022-11-20T03:38:53;5.10;99.90
13035;DHT22;6584;48.022;11.810;2022-11-20T03:41:21;5.10;99.90
13035;DHT22;6584;48.022;11.810;2022-11-20T03:43:53;5.20;99.90
13035;DHT22;6584;48.022;11.810;2022-11-20T03:46:19;5.20;99.90
13035;DHT22;6584;48.022;11.810;2022-11-20T03:48:45;5.10;99.90
13035;DHT22;6584;48.022;11.810;2022-11-20T03:51:12;5.10;99.90
13035;DHT22;6584;48.022;11.810;2022-11-20T03:53:39;5.10;99.90
13035;DHT22;6584;48.022;11.810;2022-11-20T03:56:05;5.10;99.90
13035;DHT22;6584;48.022;11.810;2022-11-20T03:58:32;5.10;99.90
13035;DHT22;6584;48.022;11.810;2022-11-20T04:00:57;5.00;99.90
13035;DHT22;6584;48.022;11.810;2022-11-20T04:03:23;5.00;99.90
13035;DHT22;6584;48.022;11.810;2022-11-20T04:05:48;5.00;99.90
13035;DHT22;6584;48.022;11.810;2022-11-20T04:08:14;5.10;99.90
13035;DHT22;6584;48.022;11.810;2022-11-20T04:10:39;5.10;99.90
13035;DHT22;6584;48.022;11.810;2022-11-20T04:13:05;5.10;99.90
13035;DHT22;6584;48.022;11.810;2022-11-20T04:15:30;5.10;99.90
13035;DHT22;6584;48.022;11.810;2022-11-20T04:17:56;5.20;99.90
13035;DHT22;6584;48.022;11.810;2022-11-20T04:20:21;5.10;99.90
13035;DHT22;6584;48.022;11.810;2022-11-20T04:22:47;5.10;99.90
13035;DHT22;6584;48.022;11.810;2022-11-20T04:25:12;5.10;99.90
13035;DHT22;6584;48.022;11.810;2022-11-20T04:27:38;5.10;99.90
13035;DHT22;6584;48.022;11.810;2022-11-20T04:30:04;5.10;99.90
13035;DHT22;6584;48.022;11.810;2022-11-20T04:32:29;5.10;99.90
13035;DHT22;6584;48.022;11.810;2022-11-20T04:34:55;5.10;99.90
13035;DHT22;6584;48.022;11.810;2022-11-20T04:37:20;5.10;99.90
13035;DHT22;6584;48.022;11.810;2022-11-20T04:39:46;5.10;99.90
13035;DHT22;6584;48.022;11.810;2022-11-20T04:42:11;5.10;99.90
13035;DHT22;6584;48.022;11.810;2022-11-20T04:44:56;5.10;99.90
13035;DHT22;6584;48.022;11.810;2022-11-20T04:47:22;5.10;99.90
13035;DHT22;6584;48.022;11.810;2022-11-20T04:49:47;5.10;99.90
13035;DHT22;6584;48.022;11.810;2022-11-20T04:52:13;5.10;99.90
13035;DHT22;6584;48.022;11.810;2022-11-20T04:54:39;5.10;99.90
13035;DHT22;6584;48.022;11.810;2022-11-20T04:57:05;5.20;99.90
13035;DHT22;6584;48.022;11.810;2022-11-20T04:59:31;5.20;99.90
13035;DHT22;6584;48.022;11.810;2022-11-20T05:01:56;5.20;99.90
13035;DHT22;6584;48.022;11.810;2022-11-20T05:04:22;5.20;99.90
13035;DHT22;6584;48.022;11.810;2022-11-20T05:06:49;5.20;99.90
13035;DHT22;6584;48.022;11.810;2022-11-20T05:09:15;5.20;99.90
13035;DHT22;6584;48.022;11.810;2022-11-20T05:11:41;5.20;99.90
13035;DHT22;6584;48.022;11.810;2022-11-20T05:14:06;5.20;99.90
13035;DHT22;6584;48.022;11.810;2022-11-20T05:16:34;5.20;99.90
13035;DHT22;6584;48.022;11.810;2022-11-20T05:19:00;5.10;99.90
13035;DHT22;6584;48.022;11.810;2022-11-20T05:21:25;5.10;99.90
13035;DHT22;6584;48.022;11.810;2022-11-20T05:23:51;5.10;99.90
13035;DHT22;6584;48.022;11.810;2022-11-20T05:26:21;5.10;99.90
13035;DHT22;6584;48.022;11.810;2022-11-20T05:28:47;5.10;99.90
13035;DHT22;6584;48.022;11.810;2022-11-20T05:31:15;5.10;99.90
13035;DHT22;6584;48.022;11.810;2022-11-20T05:33:42;5.10;99.90
13035;DHT22;6584;48.022;11.810;2022-11-20T05:36:09;5.10;99.90
13035;DHT22;6584;48.022;11.810;2022-11-20T05:38:35;5.10;99.90
13035;DHT22;6584;48.022;11.810;2022-11-20T05:41:05;5.10;99.90
13035;DHT22;6584;48.022;11.810;2022-11-20T05:43:39;5.10;99.90
13035;DHT22;6584;48.022;11.810;2022-11-20T05:46:06;5.10;99.90
13035;DHT22;6584;48.022;11.810;2022-11-20T05:48:33;5.00;99.90
13035;DHT22;6584;48.022;11.810;2022-11-20T05:51:00;5.00;99.90
13035;DHT22;6584;48.022;11.810;2022-11-20T05:53:26;5.10;99.90
13035;DHT22;6584;48.022;11.810;2022-11-20T05:56:06;5.20;99.90
13035;DHT22;6584;48.022;11.810;2022-11-20T05:58:33;5.20;99.90
13035;DHT22;6584;48.022;11.810;2022-11-20T06:01:17;5.20;99.90
13035;DHT22;6584;48.022;11.810;2022-11-20T06:03:44;5.10;99.90
13035;DHT22;6584;48.022;11.810;2022-11-20T06:06:14;5.20;99.90
13035;DHT22;6584;48.022;11.810;2022-11-20T06:08:40;5.10;99.90
13035;DHT22;6584;48.022;11.810;2022-11-20T06:11:07;5.10;99.90
13035;DHT22;6584;48.022;11.810;2022-11-20T06:13:33;5.10;99.90
13035;DHT22;6584;48.022;11.810;2022-11-20T06:15:59;5.20;99.90
13035;DHT22;6584;48.022;11.810;2022-11-20T06:18:29;5.20;99.90
13035;DHT22;6584;48.022;11.810;2022-11-20T06:21:12;5.20;99.90
13035;DHT22;6584;48.022;11.810;2022-11-20T06:23:38;5.20;99.90
13035;DHT22;6584;48.022;11.810;2022-11-20T06:26:09;5.20;99.90
13035;DHT22;6584;48.022;11.810;2022-11-20T06:28:35;5.20;99.90
13035;DHT22;6584;48.022;11.810;2022-11-20T06:31:01;5.10;99.90
13035;DHT22;6584;48.022;11.810;2022-11-20T06:33:27;5.10;99.90
13035;DHT22;6584;48.022;11.810;2022-11-20T06:35:56;5.10;99.90
13035;DHT22;6584;48.022;11.810;2022-11-20T06:38:23;5.10;99.90
13035;DHT22;6584;48.022;11.810;2022-11-20T06:40:48;5.10;99.90
13035;DHT22;6584;48.022;11.810;2022-11-20T06:43:14;5.00;99.90
13035;DHT22;6584;48.022;11.810;2022-11-20T06:45:40;5.00;99.90
13035;DHT22;6584;48.022;11.810;2022-11-20T06:48:06;4.90;99.90
13035;DHT22;6584;48.022;11.810;2022-11-20T06:50:32;4.90;99.90
13035;DHT22;6584;48.022;11.810;2022-11-20T06:53:01;4.90;99.90
13035;DHT22;6584;48.022;11.810;2022-11-20T06:55:26;4.90;99.90
13035;DHT22;6584;48.022;11.810;2022-11-20T06:57:52;4.80;99.90
13035;DHT22;6584;48.022;11.810;2022-11-20T07:00:17;4.80;99.90
13035;DHT22;6584;48.022;11.810;2022-11-20T07:02:43;4.80;99.90
13035;DHT22;6584;48.022;11.810;2022-11-20T07:05:09;4.70;99.90
13035;DHT22;6584;48.022;11.810;2022-11-20T07:07:34;4.70;99.90
13035;DHT22;6584;48.022;11.810;2022-11-20T07:10:00;4.60;99.90
13035;DHT22;6584;48.022;11.810;2022-11-20T07:12:25;4.60;99.90
13035;DHT22;6584;48.022;11.810;2022-11-20T07:14:51;4.60;99.90
13035;DHT22;6584;48.022;11.810;2022-11-20T07:17:16;4.60;99.90
13035;DHT22;6584;48.022;11.810;2022-11-20T07:19:42;4.70;99.90
13035;DHT22;6584;48.022;11.810;2022-11-20T07:22:08;4.70;99.90
13035;DHT22;6584;48.022;11.810;2022-11-20T07:24:34;4.70;99.90
13035;DHT22;6584;48.022;11.810;2022-11-20T07:27:00;4.80;99.90
13035;DHT22;6584;48.022;11.810;2022-11-20T07:29:25;4.80;99.90
13035;DHT22;6584;48.022;11.810;2022-11-20T07:31:51;4.90;99.90
13035;DHT22;6584;48.022;11.810;2022-11-20T07:34:17;4.90;99.90
13035;DHT22;6584;48.022;11.810;2022-11-20T07:36:42;5.00;99.90
13035;DHT22;6584;48.022;11.810;2022-11-20T07:39:08;5.10;99.90
13035;DHT22;6584;48.022;11.810;2022-11-20T07:41:33;5.20;99.90
13035;DHT22;6584;48.022;11.810;2022-11-20T07:43:59;5.20;99.90
13035;DHT22;6584;48.022;11.810;2022-11-20T07:46:24;5.30;99.90
13035;DHT22;6584;48.022;11.810;2022-11-20T07:48:50;5.40;99.90
13035;DHT22;6584;48.022;11.810;2022-11-20T07:51:16;5.50;99.90
13035;DHT22;6584;48.022;11.810;2022-11-20T07:53:41;5.60;99.90
13035;DHT22;6584;48.022;11.810;2022-11-20T07:56:07;5.70;99.90
13035;DHT22;6584;48.022;11.810;2022-11-20T07:58:32;5.70;99.90
13035;DHT22;6584;48.022;11.810;2022-11-20T08:01:06;5.90;99.90
13035;DHT22;6584;48.022;11.810;2022-11-20T08:03:32;5.90;99.90
13035;DHT22;6584;48.022;11.810;2022-11-20T08:06:01;5.90;99.90
13035;DHT22;6584;48.022;11.810;2022-11-20T08:08:27;5.90;99.90
13035;DHT22;6584;48.022;11.810;2022-11-20T08:10:53;6.00;99.90
13035;DHT22;6584;48.022;11.810;2022-11-20T08:13:39;5.90;99.90
13035;DHT22;6584;48.022;11.810;2022-11-20T08:16:23;5.90;99.90
13035;DHT22;6584;48.022;11.810;2022-11-20T08:18:48;5.90;99.90
13035;DHT22;6584;48.022;11.810;2022-11-20T08:21:15;5.80;99.90
13035;DHT22;6584;48.022;11.810;2022-11-20T08:23:40;5.80;99.90
13035;DHT22;6584;48.022;11.810;2022-11-20T08:26:06;5.80;99.90
13035;DHT22;6584;48.022;11.810;2022-11-20T08:28:31;5.80;99.90
13035;DHT22;6584;48.022;11.810;2022-11-20T08:30:59;5.80;99.90
13035;DHT22;6584;48.022;11.810;2022-11-20T08:33:25;5.80;99.90
13035;DHT22;6584;48.022;11.810;2022-11-20T08:35:51;5.80;99.90
13035;DHT22;6584;48.022;11.810;2022-11-20T08:38:16;5.70;99.90
13035;DHT22;6584;48.022;11.810;2022-11-20T08:40:42;5.70;99.90
13035;DHT22;6584;48.022;11.810;2022-11-20T08:43:30;5.70;99.90
13035;DHT22;6584;48.022;11.810;2022-11-20T08:46:04;5.80;99.90
13035;DHT22;6584;48.022;11.810;2022-11-20T08:48:30;5.80;99.90
13035;DHT22;6584;48.022;11.810;2022-11-20T08:50:58;5.90;99.90
13035;DHT22;6584;48.022;11.810;2022-11-20T08:53:24;5.90;99.90
13035;DHT22;6584;48.022;11.810;2022-11-20T08:55:50;6.00;99.90
13035;DHT22;6584;48.022;11.810;2022-11-20T08:58:15;6.00;99.90
13035;DHT22;6584;48.022;11.810;2022-11-20T09:00:41;6.00;99.90
13035;DHT22;6584;48.022;11.810;2022-11-20T09:03:06;6.00;99.90
13035;DHT22;6584;48.022;11.810;2022-11-20T09:05:32;6.00;99.90
13035;DHT22;6584;48.022;11.810;2022-11-20T09:07:58;6.10;99.90
13035;DHT22;6584;48.022;11.810;2022-11-20T09:10:24;6.10;99.90
13035;DHT22;6584;48.022;11.810;2022-11-20T09:12:50;6.20;99.90
13035;DHT22;6584;48.022;11.810;2022-11-20T09:15:17;6.20;99.90
13035;DHT22;6584;48.022;11.810;2022-11-20T09:17:49;6.20;99.90
13035;DHT22;6584;48.022;11.810;2022-11-20T09:20:15;6.20;99.90
13035;DHT22;6584;48.022;11.810;2022-11-20T09:22:41;6.30;99.90
13035;DHT22;6584;48.022;11.810;2022-11-20T09:25:07;6.30;99.90
13035;DHT22;6584;48.022;11.810;2022-11-20T09:27:33;6.30;99.90
13035;DHT22;6584;48.022;11.810;2022-11-20T09:29:58;6.30;99.90
13035;DHT22;6584;48.022;11.810;2022-11-20T09:32:24;6.30;99.90
13035;DHT22;6584;48.022;11.810;2022-11-20T09:34:49;6.30;99.90
13035;DHT22;6584;48.022;11.810;2022-11-20T09:37:15;6.30;99.90
13035;DHT22;6584;48.022;11.810;2022-11-20T09:39:40;6.30;99.90
13035;DHT22;6584;48.022;11.810;2022-11-20T09:50:20;6.50;99.90
13035;DHT22;6584;48.022;11.810;2022-11-20T09:55:24;6.60;99.90
13035;DHT22;6584;48.022;11.810;2022-11-20T09:57:51;6.60;99.90
13035;DHT22;6584;48.022;11.810;2022-11-20T10:00:17;6.70;99.90
13035;DHT22;6584;48.022;11.810;2022-11-20T10:03:01;6.70;99.90
13035;DHT22;6584;48.022;11.810;2022-11-20T10:05:53;6.80;99.90
13035;DHT22;6584;48.022;11.810;2022-11-20T10:08:20;6.80;99.90
13035;DHT22;6584;48.022;11.810;2022-11-20T10:10:52;6.90;99.90
13035;DHT22;6584;48.022;11.810;2022-11-20T10:13:46;6.90;99.90
13035;DHT22;6584;48.022;11.810;2022-11-20T10:19:47;7.00;99.90
13035;DHT22;6584;48.022;11.810;2022-11-20T10:22:19;7.10;99.90
13035;DHT22;6584;48.022;11.810;2022-11-20T10:24:56;7.10;99.90
13035;DHT22;6584;48.022;11.810;2022-11-20T10:27:48;7.10;99.90
13035;DHT22;6584;48.022;11.810;2022-11-20T10:30:20;7.20;99.90
13035;DHT22;6584;48.022;11.810;2022-11-20T10:33:01;7.30;99.90
13035;DHT22;6584;48.022;11.810;2022-11-20T10:35:42;7.30;99.90
13035;DHT22;6584;48.022;11.810;2022-11-20T10:38:17;7.40;99.90
13035;DHT22;6584;48.022;11.810;2022-11-20T10:40:51;7.40;99.90
13035;DHT22;6584;48.022;11.810;2022-11-20T10:43:31;7.50;99.90
13035;DHT22;6584;48.022;11.810;2022-11-20T10:46:02;7.50;99.90
13035;DHT22;6584;48.022;11.810;2022-11-20T10:48:31;7.50;99.90
13035;DHT22;6584;48.022;11.810;2022-11-20T11:00:24;7.90;99.90
13035;DHT22;6584;48.022;11.810;2022-11-20T11:02:52;7.70;99.90
13035;DHT22;6584;48.022;11.810;2022-11-20T11:05:37;7.80;99.90
13035;DHT22;6584;48.022;11.810;2022-11-20T11:08:09;7.90;99.90
13035;DHT22;6584;48.022;11.810;2022-11-20T11:13:07;8.10;99.90
13035;DHT22;6584;48.022;11.810;2022-11-20T11:15:39;8.20;99.90
13035;DHT22;6584;48.022;11.810;2022-11-20T11:18:09;8.00;99.90
13035;DHT22;6584;48.022;11.810;2022-11-20T11:20:34;8.00;99.90
13035;DHT22;6584;48.022;11.810;2022-11-20T11:23:00;8.00;99.90
13035;DHT22;6584;48.022;11.810;2022-11-20T11:27:59;8.00;99.90
13035;DHT22;6584;48.022;11.810;2022-11-20T11:30:27;8.00;99.90
13035;DHT22;6584;48.022;11.810;2022-11-20T11:33:09;7.90;99.90
13035;DHT22;6584;48.022;11.810;2022-11-20T11:35:43;7.80;99.90
13035;DHT22;6584;48.022;11.810;2022-11-20T11:38:21;7.70;99.90
13035;DHT22;6584;48.022;11.810;2022-11-20T11:40:48;7.70;99.90
13035;DHT22;6584;48.022;11.810;2022-11-20T11:43:24;7.60;99.90
13035;DHT22;6584;48.022;11.810;2022-11-20T11:54:23;7.50;99.90
13035;DHT22;6584;48.022;11.810;2022-11-20T11:56:49;7.50;99.90
13035;DHT22;6584;48.022;11.810;2022-11-20T11:59:27;7.60;99.90
13035;DHT22;6584;48.022;11.810;2022-11-20T12:01:58;7.50;99.90
13035;DHT22;6584;48.022;11.810;2022-11-20T12:07:41;7.50;99.90
13035;DHT22;6584;48.022;11.810;2022-11-20T12:10:38;7.50;99.90
13035;DHT22;6584;48.022;11.810;2022-11-20T12:15:48;7.60;99.90
13035;DHT22;6584;48.022;11.810;2022-11-20T12:18:18;7.70;99.90
13035;DHT22;6584;48.022;11.810;2022-11-20T12:21:04;7.70;99.90
13035;DHT22;6584;48.022;11.810;2022-11-20T12:26:10;7.80;99.90
13035;DHT22;6584;48.022;11.810;2022-11-20T12:28:42;7.80;99.90
13035;DHT22;6584;48.022;11.810;2022-11-20T12:31:14;7.80;99.90
13035;DHT22;6584;48.022;11.810;2022-11-20T12:36:44;7.90;99.90
13035;DHT22;6584;48.022;11.810;2022-11-20T12:39:17;7.90;99.90
13035;DHT22;6584;48.022;11.810;2022-11-20T12:45:21;8.00;99.90
13035;DHT22;6584;48.022;11.810;2022-11-20T12:50:31;7.80;99.90
13035;DHT22;6584;48.022;11.810;2022-11-20T12:58:50;7.60;99.90
13035;DHT22;6584;48.022;11.810;2022-11-20T13:01:28;7.50;99.90
13035;DHT22;6584;48.022;11.810;2022-11-20T13:06:45;7.30;99.90
13035;DHT22;6584;48.022;11.810;2022-11-20T13:09:13;7.30;99.90
13035;DHT22;6584;48.022;11.810;2022-11-20T13:12:17;7.20;99.90
13035;DHT22;6584;48.022;11.810;2022-11-20T13:15:05;7.10;99.90
13035;DHT22;6584;48.022;11.810;2022-11-20T13:17:41;7.10;99.90
13035;DHT22;6584;48.022;11.810;2022-11-20T13:20:17;7.00;99.90
13035;DHT22;6584;48.022;11.810;2022-11-20T13:22:47;7.00;99.90
13035;DHT22;6584;48.022;11.810;2022-11-20T13:25:33;6.90;99.90
13035;DHT22;6584;48.022;11.810;2022-11-20T13:28:01;6.90;99.90
13035;DHT22;6584;48.022;11.810;2022-11-20T13:30:29;6.90;99.90
13035;DHT22;6584;48.022;11.810;2022-11-20T13:35:34;6.80;99.90
13035;DHT22;6584;48.022;11.810;2022-11-20T13:38:17;6.70;99.90
13035;DHT22;6584;48.022;11.810;2022-11-20T13:40:57;6.70;99.90
13035;DHT22;6584;48.022;11.810;2022-11-20T13:43:38;6.70;99.90
13035;DHT22;6584;48.022;11.810;2022-11-20T13:46:07;6.60;99.90
13035;DHT22;6584;48.022;11.810;2022-11-20T13:48:44;6.60;99.90
13035;DHT22;6584;48.022;11.810;2022-11-20T13:57:11;6.50;99.90
13035;DHT22;6584;48.022;11.810;2022-11-20T14:00:09;6.50;99.90
13035;DHT22;6584;48.022;11.810;2022-11-20T14:02:35;6.40;99.90
13035;DHT22;6584;48.022;11.810;2022-11-20T14:05:01;6.40;99.90
13035;DHT22;6584;48.022;11.810;2022-11-20T14:07:39;6.40;99.90
13035;DHT22;6584;48.022;11.810;2022-11-20T14:10:17;6.40;99.90
13035;DHT22;6584;48.022;11.810;2022-11-20T14:12:43;6.40;99.90
13035;DHT22;6584;48.022;11.810;2022-11-20T14:15:28;6.50;99.90
13035;DHT22;6584;48.022;11.810;2022-11-20T14:17:54;6.50;99.90
13035;DHT22;6584;48.022;11.810;2022-11-20T14:20:20;6.50;99.90
13035;DHT22;6584;48.022;11.810;2022-11-20T14:22:49;6.50;99.90
13035;DHT22;6584;48.022;11.810;2022-11-20T14:27:43;6.40;99.90
13035;DHT22;6584;48.022;11.810;2022-11-20T14:32:41;6.40;99.90
13035;DHT22;6584;48.022;11.810;2022-11-20T14:35:09;6.40;99.90
13035;DHT22;6584;48.022;11.810;2022-11-20T14:37:39;6.40;99.90
13035;DHT22;6584;48.022;11.810;2022-11-20T14:42:48;6.50;99.90
13035;DHT22;6584;48.022;11.810;2022-11-20T14:45:14;6.40;99.90
13035;DHT22;6584;48.022;11.810;2022-11-20T14:47:40;6.40;99.90
13035;DHT22;6584;48.022;11.810;2022-11-20T14:50:22;6.40;99.90
13035;DHT22;6584;48.022;11.810;2022-11-20T14:52:53;6.40;99.90
13035;DHT22;6584;48.022;11.810;2022-11-20T14:55:53;6.40;99.90
13035;DHT22;6584;48.022;11.810;2022-11-20T14:58:25;6.40;99.90
13035;DHT22;6584;48.022;11.810;2022-11-20T15:01:02;6.40;99.90
13035;DHT22;6584;48.022;11.810;2022-11-20T15:03:58;6.30;99.90
13035;DHT22;6584;48.022;11.810;2022-11-20T15:06:27;6.30;99.90
13035;DHT22;6584;48.022;11.810;2022-11-20T15:08:53;6.20;99.90
13035;DHT22;6584;48.022;11.810;2022-11-20T15:11:25;6.20;99.90
13035;DHT22;6584;48.022;11.810;2022-11-20T15:13:52;6.30;99.90
13035;DHT22;6584;48.022;11.810;2022-11-20T15:16:20;6.20;99.90
13035;DHT22;6584;48.022;11.810;2022-11-20T15:18:46;6.20;99.90
13035;DHT22;6584;48.022;11.810;2022-11-20T15:21:15;6.30;99.90
13035;DHT22;6584;48.022;11.810;2022-11-20T15:23:42;6.30;99.90
13035;DHT22;6584;48.022;11.810;2022-11-20T15:26:09;6.30;99.90
13035;DHT22;6584;48.022;11.810;2022-11-20T15:28:42;6.30;99.90
13035;DHT22;6584;48.022;11.810;2022-11-20T15:31:13;6.20;99.90
13035;DHT22;6584;48.022;11.810;2022-11-20T15:33:39;6.20;99.90
13035;DHT22;6584;48.022;11.810;2022-11-20T15:36:05;6.10;99.90
13035;DHT22;6584;48.022;11.810;2022-11-20T15:38:34;6.20;99.90
13035;DHT22;6584;48.022;11.810;2022-11-20T15:40:59;6.10;99.90
13035;DHT22;6584;48.022;11.810;2022-11-20T15:43:25;6.10;99.90
13035;DHT22;6584;48.022;11.810;2022-11-20T15:46:02;6.10;99.90
13035;DHT22;6584;48.022;11.810;2022-11-20T15:48:52;6.00;99.90
13035;DHT22;6584;48.022;11.810;2022-11-20T15:51:27;6.00;99.90
13035;DHT22;6584;48.022;11.810;2022-11-20T15:53:54;6.00;99.90
13035;DHT22;6584;48.022;11.810;2022-11-20T15:56:20;5.90;99.90
13035;DHT22;6584;48.022;11.810;2022-11-20T15:58:46;5.90;99.90
13035;DHT22;6584;48.022;11.810;2022-11-20T16:01:14;6.00;99.90
13035;DHT22;6584;48.022;11.810;2022-11-20T16:03:40;6.00;99.90
13035;DHT22;6584;48.022;11.810;2022-11-20T16:06:06;6.00;99.90
13035;DHT22;6584;48.022;11.810;2022-11-20T16:08:32;6.00;99.90
13035;DHT22;6584;48.022;11.810;2022-11-20T16:10:57;6.00;99.90
13035;DHT22;6584;48.022;11.810;2022-11-20T16:13:23;5.90;99.90
13035;DHT22;6584;48.022;11.810;2022-11-20T16:16:11;5.90;99.90
13035;DHT22;6584;48.022;11.810;2022-11-20T16:18:39;5.90;99.90
13035;DHT22;6584;48.022;11.810;2022-11-20T16:21:10;5.90;99.90
13035;DHT22;6584;48.022;11.810;2022-11-20T16:23:36;5.90;99.90
13035;DHT22;6584;48.022;11.810;2022-11-20T16:26:09;5.90;99.90
13035;DHT22;6584;48.022;11.810;2022-11-20T16:28:35;5.90;99.90
13035;DHT22;6584;48.022;11.810;2022-11-20T16:31:14;5.90;99.90
13035;DHT22;6584;48.022;11.810;2022-11-20T16:33:40;5.80;99.90
13035;DHT22;6584;48.022;11.810;2022-11-20T16:36:08;5.80;99.90
13035;DHT22;6584;48.022;11.810;2022-11-20T16:38:33;5.70;99.90
13035;DHT22;6584;48.022;11.810;2022-11-20T16:41:03;5.70;99.90
13035;DHT22;6584;48.022;11.810;2022-11-20T16:43:29;5.70;99.90
13035;DHT22;6584;48.022;11.810;2022-11-20T16:45:54;5.60;99.90
13035;DHT22;6584;48.022;11.810;2022-11-20T16:48:20;5.70;99.90
13035;DHT22;6584;48.022;11.810;2022-11-20T16:50:50;5.70;99.90
13035;DHT22;6584;48.022;11.810;2022-11-20T16:53:20;5.70;99.90
13035;DHT22;6584;48.022;11.810;2022-11-20T16:55:47;5.60;99.90
13035;DHT22;6584;48.022;11.810;2022-11-20T16:58:13;5.60;99.90
13035;DHT22;6584;48.022;11.810;2022-11-20T17:00:39;5.50;99.90
13035;DHT22;6584;48.022;11.810;2022-11-20T17:03:06;5.50;99.90
13035;DHT22;6584;48.022;11.810;2022-11-20T17:05:32;5.40;99.90
13035;DHT22;6584;48.022;11.810;2022-11-20T17:07:59;5.40;99.90
13035;DHT22;6584;48.022;11.810;2022-11-20T17:10:25;5.30;99.90
13035;DHT22;6584;48.022;11.810;2022-11-20T17:12:50;5.30;99.90
13035;DHT22;6584;48.022;11.810;2022-11-20T17:15:16;5.30;99.90
13035;DHT22;6584;48.022;11.810;2022-11-20T17:17:42;5.20;99.90
13035;DHT22;6584;48.022;11.810;2022-11-20T17:20:08;5.20;99.90